createdAt,value
2018-07-06T00:00:30.848Z,1002.99
2018-07-06T00:01:12.226Z,1003
2018-07-06T00:01:52.740Z,1002.94
2018-07-06T00:02:33.258Z,1002.96
2018-07-06T00:03:13.714Z,1002.97
2018-07-06T00:03:54.217Z,1002.97
2018-07-06T00:04:34.726Z,1003
2018-07-06T00:05:15.226Z,1002.99
2018-07-06T00:05:56.337Z,1003.01
2018-07-06T00:06:36.842Z,1002.95
2018-07-06T00:07:17.362Z,1002.97
2018-07-06T00:07:57.852Z,1002.99
2018-07-06T00:08:38.468Z,1002.95
2018-07-06T00:09:18.995Z,1002.94
2018-07-06T00:09:59.501Z,1002.91
2018-07-06T00:10:40.826Z,1002.91
2018-07-06T00:11:21.323Z,1002.92
2018-07-06T00:12:01.842Z,1002.85
2018-07-06T00:12:42.310Z,1002.9
2018-07-06T00:13:22.835Z,1002.89
2018-07-06T00:14:03.391Z,1002.95
2018-07-06T00:14:43.920Z,1002.94
2018-07-06T00:15:24.394Z,1002.92
2018-07-06T00:16:05.423Z,1002.93
2018-07-06T00:16:47.548Z,1002.91
2018-07-06T00:17:28.027Z,1002.91
2018-07-06T00:18:08.528Z,1002.91
2018-07-06T00:18:49.836Z,1002.91
2018-07-06T00:19:30.347Z,1002.95
2018-07-06T00:20:10.873Z,1002.88
2018-07-06T00:20:51.341Z,1002.89
2018-07-06T00:21:31.849Z,1002.91
2018-07-06T00:22:12.318Z,1002.91
2018-07-06T00:22:52.832Z,1002.89
2018-07-06T00:23:33.343Z,1002.89
2018-07-06T00:24:13.820Z,1002.9
2018-07-06T00:24:54.850Z,1002.86
2018-07-06T00:25:36.237Z,1002.92
2018-07-06T00:26:16.770Z,1002.9
2018-07-06T00:26:57.298Z,1002.91
2018-07-06T00:27:38.449Z,1002.9
2018-07-06T00:28:18.949Z,1002.89
2018-07-06T00:28:59.443Z,1002.91
2018-07-06T00:29:40.709Z,1002.87
2018-07-06T00:30:21.226Z,1002.91
2018-07-06T00:31:01.753Z,1002.91
2018-07-06T00:31:43.042Z,1002.96
2018-07-06T00:32:23.560Z,1002.93
2018-07-06T00:33:04.935Z,1002.95
2018-07-06T00:33:46.125Z,1002.94
2018-07-06T00:34:27.347Z,1002.95
2018-07-06T00:35:07.870Z,1002.93
2018-07-06T00:35:48.377Z,1002.93
2018-07-06T00:36:30.390Z,1002.96
2018-07-06T00:37:10.840Z,1002.96
2018-07-06T00:37:52.049Z,1003.01
2018-07-06T00:38:32.426Z,1002.99
2018-07-06T00:39:12.947Z,1003
2018-07-06T00:39:53.939Z,1002.97
2018-07-06T00:40:34.482Z,1003
2018-07-06T00:41:14.931Z,1002.99
2018-07-06T00:41:55.538Z,1003
2018-07-06T00:42:36.546Z,1003.07
2018-07-06T00:43:17.088Z,1003.04
2018-07-06T00:43:58.127Z,1003.03
2018-07-06T00:44:39.220Z,1003.05
2018-07-06T00:45:19.767Z,1003.06
2018-07-06T00:46:00.222Z,1003.05
2018-07-06T00:46:40.737Z,1003.02
2018-07-06T00:47:21.209Z,1003.03
2018-07-06T00:48:01.725Z,1003.08
2018-07-06T00:48:42.227Z,1003.09
2018-07-06T00:49:23.661Z,1003.1
2018-07-06T00:50:04.151Z,1003.12
2018-07-06T00:50:44.594Z,1003.05
2018-07-06T00:51:25.110Z,1003.07
2018-07-06T00:52:05.611Z,1003.12
2018-07-06T00:52:47.719Z,1003.12
2018-07-06T00:53:28.224Z,1003.15
2018-07-06T00:54:09.454Z,1003.13
2018-07-06T00:54:50.001Z,1003.13
2018-07-06T00:55:31.072Z,1003.15
2018-07-06T00:56:12.148Z,1003.14
2018-07-06T00:56:53.491Z,1003.15
2018-07-06T00:57:33.961Z,1003.16
2018-07-06T00:58:14.472Z,1003.21
2018-07-06T00:58:54.960Z,1003.18
2018-07-06T00:59:35.466Z,1003.17
2018-07-06T01:00:16.654Z,1003.2
2018-07-06T01:00:57.211Z,1003.19
2018-07-06T01:01:37.785Z,1003.2
2018-07-06T01:02:18.174Z,1003.17
2018-07-06T01:02:58.660Z,1003.2
2018-07-06T01:03:39.162Z,1003.2
2018-07-06T01:04:19.703Z,1003.22
2018-07-06T01:05:00.161Z,1003.25
2018-07-06T01:05:42.480Z,1003.27
2018-07-06T01:06:22.979Z,1003.22
2018-07-06T01:07:03.509Z,1003.27
2018-07-06T01:07:43.960Z,1003.2
2018-07-06T01:08:24.411Z,1003.24
2018-07-06T01:09:04.936Z,1003.21
2018-07-06T01:09:45.429Z,1003.23
2018-07-06T01:10:26.887Z,1003.24
2018-07-06T01:11:07.349Z,1003.24
2018-07-06T01:11:48.676Z,1003.22
2018-07-06T01:12:29.868Z,1003.26
2018-07-06T01:13:10.422Z,1003.27
2018-07-06T01:13:50.897Z,1003.25
2018-07-06T01:14:32.242Z,1003.25
2018-07-06T01:15:12.741Z,1003.26
2018-07-06T01:15:53.253Z,1003.23
2018-07-06T01:16:34.659Z,1003.23
2018-07-06T01:17:15.152Z,1003.24
2018-07-06T01:17:55.636Z,1003.22
2018-07-06T01:18:36.156Z,1003.24
2018-07-06T01:19:16.642Z,1003.25
2018-07-06T01:19:57.165Z,1003.26
2018-07-06T01:20:37.651Z,1003.26
2018-07-06T01:21:18.141Z,1003.24
2018-07-06T01:21:59.283Z,1003.22
2018-07-06T01:22:39.755Z,1003.26
2018-07-06T01:23:20.224Z,1003.24
2018-07-06T01:24:00.754Z,1003.23
2018-07-06T01:24:41.258Z,1003.24
2018-07-06T01:25:21.736Z,1003.24
2018-07-06T01:26:02.251Z,1003.24
2018-07-06T01:26:42.709Z,1003.23
2018-07-06T01:27:23.205Z,1003.24
2018-07-06T01:28:03.707Z,1003.25
2018-07-06T01:28:45.005Z,1003.24
2018-07-06T01:29:25.476Z,1003.27
2018-07-06T01:30:05.962Z,1003.26
2018-07-06T01:30:46.480Z,1003.24
2018-07-06T01:31:27.473Z,1003.24
2018-07-06T01:32:07.977Z,1003.27
2018-07-06T01:32:48.459Z,1003.25
2018-07-06T01:33:28.977Z,1003.28
2018-07-06T01:34:09.457Z,1003.26
2018-07-06T01:34:49.947Z,1003.31
2018-07-06T01:35:32.766Z,1003.28
2018-07-06T01:36:13.219Z,1003.27
2018-07-06T01:36:53.700Z,1003.25
2018-07-06T01:37:34.185Z,1003.26
2018-07-06T01:38:14.694Z,1003.25
2018-07-06T01:38:55.771Z,1003.28
2018-07-06T01:39:37.768Z,1003.25
2018-07-06T01:40:18.295Z,1003.27
2018-07-06T01:41:00.623Z,1003.25
2018-07-06T01:41:41.132Z,1003.3
2018-07-06T01:42:21.679Z,1003.25
2018-07-06T01:43:02.121Z,1003.26
2018-07-06T01:43:42.606Z,1003.28
2018-07-06T01:44:23.156Z,1003.27
2018-07-06T01:45:03.631Z,1003.25
2018-07-06T01:45:44.092Z,1003.27
2018-07-06T01:46:24.577Z,1003.27
2018-07-06T01:47:05.104Z,1003.29
2018-07-06T01:47:45.595Z,1003.33
2018-07-06T01:48:26.104Z,1003.3
2018-07-06T01:49:06.590Z,1003.33
2018-07-06T01:49:47.104Z,1003.31
2018-07-06T01:50:27.590Z,1003.34
2018-07-06T01:51:08.073Z,1003.31
2018-07-06T01:51:49.498Z,1003.31
2018-07-06T01:52:29.984Z,1003.35
2018-07-06T01:53:10.499Z,1003.34
2018-07-06T01:53:50.965Z,1003.32
2018-07-06T01:54:31.464Z,1003.35
2018-07-06T01:55:11.995Z,1003.34
2018-07-06T01:55:52.464Z,1003.36
2018-07-06T01:56:33.915Z,1003.35
2018-07-06T01:57:14.400Z,1003.37
2018-07-06T01:57:54.911Z,1003.35
2018-07-06T01:58:35.383Z,1003.36
2018-07-06T01:59:15.851Z,1003.38
2018-07-06T01:59:56.341Z,1003.38
2018-07-06T02:00:36.849Z,1003.36
2018-07-06T02:01:18.257Z,1003.34
2018-07-06T02:01:58.768Z,1003.37
2018-07-06T02:02:39.278Z,1003.34
2018-07-06T02:03:19.776Z,1003.36
2018-07-06T02:04:00.225Z,1003.37
2018-07-06T02:04:40.748Z,1003.43
2018-07-06T02:05:21.254Z,1003.38
2018-07-06T02:06:01.742Z,1003.36
2018-07-06T02:06:42.246Z,1003.38
2018-07-06T02:07:23.493Z,1003.37
2018-07-06T02:08:04.048Z,1003.36
2018-07-06T02:08:44.500Z,1003.37
2018-07-06T02:09:25.061Z,1003.33
2018-07-06T02:10:05.486Z,1003.32
2018-07-06T02:10:45.958Z,1003.37
2018-07-06T02:11:26.466Z,1003.29
2018-07-06T02:12:07.788Z,1003.31
2018-07-06T02:12:48.274Z,1003.34
2018-07-06T02:13:29.499Z,1003.3
2018-07-06T02:14:09.979Z,1003.3
2018-07-06T02:14:50.537Z,1003.32
2018-07-06T02:15:31.043Z,1003.34
2018-07-06T02:16:11.498Z,1003.32
2018-07-06T02:16:52.508Z,1003.36
2018-07-06T02:17:33.056Z,1003.37
2018-07-06T02:18:14.384Z,1003.33
2018-07-06T02:18:54.936Z,1003.4
2018-07-06T02:19:35.488Z,1003.35
2018-07-06T02:20:16.507Z,1003.31
2018-07-06T02:20:57.005Z,1003.35
2018-07-06T02:21:38.281Z,1003.31
2018-07-06T02:22:18.789Z,1003.37
2018-07-06T02:22:59.254Z,1003.3
2018-07-06T02:23:39.801Z,1003.31
2018-07-06T02:24:21.195Z,1003.37
2018-07-06T02:25:01.681Z,1003.37
2018-07-06T02:25:42.185Z,1003.36
2018-07-06T02:26:22.721Z,1003.44
2018-07-06T02:27:03.144Z,1003.37
2018-07-06T02:27:43.721Z,1003.39
2018-07-06T02:28:24.127Z,1003.4
2018-07-06T02:29:04.606Z,1003.39
2018-07-06T02:29:45.131Z,1003.42
2018-07-06T02:30:25.593Z,1003.41
2018-07-06T02:31:06.089Z,1003.41
2018-07-06T02:31:46.588Z,1003.4
2018-07-06T02:32:27.106Z,1003.42
2018-07-06T02:33:07.593Z,1003.43
2018-07-06T02:33:48.098Z,1003.41
2018-07-06T02:34:28.611Z,1003.41
2018-07-06T02:35:09.110Z,1003.45
2018-07-06T02:35:49.595Z,1003.42
2018-07-06T02:36:30.088Z,1003.46
2018-07-06T02:37:10.545Z,1003.44
2018-07-06T02:37:51.059Z,1003.45
2018-07-06T02:38:32.097Z,1003.45
2018-07-06T02:39:12.646Z,1003.44
2018-07-06T02:39:53.161Z,1003.43
2018-07-06T02:40:33.702Z,1003.43
2018-07-06T02:41:14.150Z,1003.43
2018-07-06T02:41:54.659Z,1003.46
2018-07-06T02:42:35.156Z,1003.44
2018-07-06T02:43:16.278Z,1003.46
2018-07-06T02:43:57.808Z,1003.46
2018-07-06T02:44:38.305Z,1003.45
2018-07-06T02:45:18.794Z,1003.47
2018-07-06T02:45:59.299Z,1003.49
2018-07-06T02:46:39.825Z,1003.51
2018-07-06T02:47:20.297Z,1003.48
2018-07-06T02:48:00.815Z,1003.5
2018-07-06T02:48:41.307Z,1003.52
2018-07-06T02:49:21.866Z,1003.51
2018-07-06T02:50:02.907Z,1003.53
2018-07-06T02:50:43.427Z,1003.46
2018-07-06T02:51:23.904Z,1003.46
2018-07-06T02:52:04.459Z,1003.48
2018-07-06T02:52:44.930Z,1003.48
2018-07-06T02:53:25.418Z,1003.47
2018-07-06T02:54:05.905Z,1003.47
2018-07-06T02:54:46.417Z,1003.48
2018-07-06T02:55:26.885Z,1003.49
2018-07-06T02:56:08.127Z,1003.49
2018-07-06T02:56:49.130Z,1003.46
2018-07-06T02:57:31.329Z,1003.5
2018-07-06T02:58:11.802Z,1003.49
2018-07-06T02:58:52.297Z,1003.48
2018-07-06T02:59:33.723Z,1003.49
2018-07-06T03:00:14.238Z,1003.45
2018-07-06T03:00:55.311Z,1003.46
2018-07-06T03:01:35.855Z,1003.43
2018-07-06T03:02:16.358Z,1003.41
2018-07-06T03:02:56.879Z,1003.4
2018-07-06T03:03:39.151Z,1003.41
2018-07-06T03:04:19.633Z,1003.44
2018-07-06T03:05:00.120Z,1003.43
2018-07-06T03:05:40.623Z,1003.44
2018-07-06T03:06:21.105Z,1003.42
2018-07-06T03:07:02.612Z,1003.44
2018-07-06T03:07:43.116Z,1003.47
2018-07-06T03:08:23.606Z,1003.51
2018-07-06T03:09:04.106Z,1003.47
2018-07-06T03:09:46.448Z,1003.49
2018-07-06T03:10:26.941Z,1003.49
2018-07-06T03:11:07.433Z,1003.5
2018-07-06T03:11:47.947Z,1003.49
2018-07-06T03:12:28.458Z,1003.48
2018-07-06T03:13:08.924Z,1003.44
2018-07-06T03:13:50.044Z,1003.51
2018-07-06T03:14:30.557Z,1003.47
2018-07-06T03:15:11.036Z,1003.48
2018-07-06T03:15:53.032Z,1003.47
2018-07-06T03:16:33.520Z,1003.5
2018-07-06T03:17:14.018Z,1003.5
2018-07-06T03:17:54.560Z,1003.49
2018-07-06T03:18:35.008Z,1003.52
2018-07-06T03:19:15.574Z,1003.53
2018-07-06T03:19:56.039Z,1003.53
2018-07-06T03:20:36.528Z,1003.49
2018-07-06T03:21:17.009Z,1003.56
2018-07-06T03:21:57.525Z,1003.6
2018-07-06T03:22:38.073Z,1003.56
2018-07-06T03:23:18.547Z,1003.57
2018-07-06T03:23:59.146Z,1003.58
2018-07-06T03:24:39.592Z,1003.56
2018-07-06T03:25:20.076Z,1003.62
2018-07-06T03:26:00.566Z,1003.58
2018-07-06T03:26:41.056Z,1003.57
2018-07-06T03:27:21.565Z,1003.57
2018-07-06T03:28:02.093Z,1003.58
2018-07-06T03:28:43.654Z,1003.59
2018-07-06T03:29:23.879Z,1003.61
2018-07-06T03:30:04.356Z,1003.6
2018-07-06T03:30:44.844Z,1003.62
2018-07-06T03:31:25.288Z,1003.63
2018-07-06T03:32:05.835Z,1003.65
2018-07-06T03:32:46.308Z,1003.67
2018-07-06T03:33:26.803Z,1003.66
2018-07-06T03:34:07.280Z,1003.71
2018-07-06T03:34:47.795Z,1003.67
2018-07-06T03:35:28.989Z,1003.66
2018-07-06T03:36:09.458Z,1003.69
2018-07-06T03:36:49.960Z,1003.69
2018-07-06T03:37:30.442Z,1003.75
2018-07-06T03:38:10.939Z,1003.7
2018-07-06T03:38:51.448Z,1003.72
2018-07-06T03:39:32.469Z,1003.73
2018-07-06T03:40:13.006Z,1003.73
2018-07-06T03:40:53.478Z,1003.7
2018-07-06T03:41:33.992Z,1003.71
2018-07-06T03:42:14.477Z,1003.69
2018-07-06T03:42:54.955Z,1003.71
2018-07-06T03:43:35.451Z,1003.73
2018-07-06T03:44:15.992Z,1003.72
2018-07-06T03:44:56.451Z,1003.68
2018-07-06T03:45:36.957Z,1003.69
2018-07-06T03:46:17.488Z,1003.68
2018-07-06T03:46:58.653Z,1003.68
2018-07-06T03:47:39.159Z,1003.7
2018-07-06T03:48:19.703Z,1003.66
2018-07-06T03:49:00.176Z,1003.63
2018-07-06T03:49:40.616Z,1003.67
2018-07-06T03:50:21.158Z,1003.69
2018-07-06T03:51:01.691Z,1003.66
2018-07-06T03:51:42.179Z,1003.64
2018-07-06T03:52:22.656Z,1003.61
2018-07-06T03:53:03.140Z,1003.61
2018-07-06T03:53:43.660Z,1003.6
2018-07-06T03:54:24.164Z,1003.56
2018-07-06T03:55:04.659Z,1003.55
2018-07-06T03:55:45.126Z,1003.54
2018-07-06T03:56:25.689Z,1003.56
2018-07-06T03:57:06.237Z,1003.56
2018-07-06T03:57:46.733Z,1003.58
2018-07-06T03:58:27.279Z,1003.57
2018-07-06T03:59:07.762Z,1003.64
2018-07-06T03:59:48.256Z,1003.61
2018-07-06T04:00:28.718Z,1003.61
2018-07-06T04:01:09.943Z,1003.63
2018-07-06T04:01:50.357Z,1003.6
2018-07-06T04:02:30.860Z,1003.63
2018-07-06T04:03:11.381Z,1003.63
2018-07-06T04:03:51.849Z,1003.69
2018-07-06T04:04:32.379Z,1003.69
2018-07-06T04:05:12.873Z,1003.63
2018-07-06T04:05:53.421Z,1003.65
2018-07-06T04:06:33.911Z,1003.63
2018-07-06T04:07:14.973Z,1003.66
2018-07-06T04:07:55.503Z,1003.67
2018-07-06T04:08:36.851Z,1003.66
2018-07-06T04:09:17.368Z,1003.64
2018-07-06T04:09:57.830Z,1003.66
2018-07-06T04:10:39.855Z,1003.65
2018-07-06T04:11:20.365Z,1003.68
2018-07-06T04:12:00.940Z,1003.65
2018-07-06T04:12:41.379Z,1003.63
2018-07-06T04:13:21.847Z,1003.65
2018-07-06T04:14:02.402Z,1003.66
2018-07-06T04:14:42.875Z,1003.68
2018-07-06T04:15:23.306Z,1003.67
2018-07-06T04:16:04.711Z,1003.63
2018-07-06T04:16:45.191Z,1003.63
2018-07-06T04:17:25.684Z,1003.69
2018-07-06T04:18:06.188Z,1003.63
2018-07-06T04:18:46.697Z,1003.61
2018-07-06T04:19:27.195Z,1003.66
2018-07-06T04:20:07.684Z,1003.68
2018-07-06T04:20:48.217Z,1003.7
2018-07-06T04:21:28.700Z,1003.73
2018-07-06T04:22:09.251Z,1003.7
2018-07-06T04:22:49.742Z,1003.72
2018-07-06T04:23:30.213Z,1003.73
2018-07-06T04:24:10.682Z,1003.77
2018-07-06T04:24:51.145Z,1003.78
2018-07-06T04:25:32.477Z,1003.78
2018-07-06T04:26:13.605Z,1003.77
2018-07-06T04:26:54.107Z,1003.79
2018-07-06T04:27:34.553Z,1003.76
2018-07-06T04:28:15.060Z,1003.78
2018-07-06T04:28:55.564Z,1003.78
2018-07-06T04:29:36.045Z,1003.78
2018-07-06T04:30:16.504Z,1003.78
2018-07-06T04:30:57.027Z,1003.83
2018-07-06T04:31:37.553Z,1003.76
2018-07-06T04:32:18.029Z,1003.82
2018-07-06T04:32:58.526Z,1003.79
2018-07-06T04:33:39.871Z,1003.8
2018-07-06T04:34:20.358Z,1003.84
2018-07-06T04:35:00.869Z,1003.81
2018-07-06T04:35:41.334Z,1003.83
2018-07-06T04:36:21.851Z,1003.86
2018-07-06T04:37:02.336Z,1003.83
2018-07-06T04:37:42.850Z,1003.86
2018-07-06T04:38:23.319Z,1003.83
2018-07-06T04:39:03.853Z,1003.83
2018-07-06T04:39:44.412Z,1003.82
2018-07-06T04:40:24.868Z,1003.87
2018-07-06T04:41:05.366Z,1003.83
2018-07-06T04:41:45.856Z,1003.85
2018-07-06T04:42:26.356Z,1003.88
2018-07-06T04:43:06.816Z,1003.85
2018-07-06T04:43:47.872Z,1003.88
2018-07-06T04:44:28.359Z,1003.91
2018-07-06T04:45:08.848Z,1003.89
2018-07-06T04:45:50.230Z,1003.91
2018-07-06T04:46:30.684Z,1003.87
2018-07-06T04:47:11.181Z,1003.93
2018-07-06T04:47:51.725Z,1003.88
2018-07-06T04:48:32.232Z,1003.92
2018-07-06T04:49:12.768Z,1003.9
2018-07-06T04:49:53.826Z,1003.94
2018-07-06T04:50:34.294Z,1003.94
2018-07-06T04:51:14.815Z,1003.95
2018-07-06T04:51:55.294Z,1003.97
2018-07-06T04:52:35.828Z,1004
2018-07-06T04:53:17.348Z,1003.98
2018-07-06T04:53:57.835Z,1003.98
2018-07-06T04:54:38.353Z,1003.96
2018-07-06T04:55:18.814Z,1003.98
2018-07-06T04:55:59.300Z,1004.05
2018-07-06T04:56:39.962Z,1004.05
2018-07-06T04:57:20.420Z,1004.03
2018-07-06T04:58:01.035Z,1004.07
2018-07-06T04:58:41.443Z,1004.07
2018-07-06T04:59:21.985Z,1004.12
2018-07-06T05:00:02.442Z,1004.08
2018-07-06T05:00:43.006Z,1004.05
2018-07-06T05:01:23.515Z,1004.1
2018-07-06T05:02:04.023Z,1004.11
2018-07-06T05:02:44.497Z,1004.08
2018-07-06T05:03:25.031Z,1004.11
2018-07-06T05:04:05.579Z,1004.12
2018-07-06T05:04:47.046Z,1004.11
2018-07-06T05:05:27.582Z,1004.09
2018-07-06T05:06:08.077Z,1004.13
2018-07-06T05:06:48.527Z,1004.15
2018-07-06T05:07:29.028Z,1004.16
2018-07-06T05:08:10.332Z,1004.15
2018-07-06T05:08:50.822Z,1004.15
2018-07-06T05:09:31.314Z,1004.17
2018-07-06T05:10:11.832Z,1004.17
2018-07-06T05:10:52.341Z,1004.22
2018-07-06T05:11:32.832Z,1004.15
2018-07-06T05:12:13.308Z,1004.24
2018-07-06T05:12:53.815Z,1004.21
2018-07-06T05:13:34.317Z,1004.21
2018-07-06T05:14:14.838Z,1004.22
2018-07-06T05:14:55.356Z,1004.2
2018-07-06T05:15:35.800Z,1004.23
2018-07-06T05:16:16.338Z,1004.21
2018-07-06T05:16:56.840Z,1004.21
2018-07-06T05:17:39.347Z,1004.26
2018-07-06T05:18:19.868Z,1004.25
2018-07-06T05:19:00.357Z,1004.23
2018-07-06T05:19:40.870Z,1004.21
2018-07-06T05:20:21.375Z,1004.29
2018-07-06T05:21:01.985Z,1004.3
2018-07-06T05:21:42.521Z,1004.27
2018-07-06T05:22:23.036Z,1004.29
2018-07-06T05:23:04.124Z,1004.33
2018-07-06T05:23:45.359Z,1004.33
2018-07-06T05:24:25.848Z,1004.32
2018-07-06T05:25:06.393Z,1004.32
2018-07-06T05:25:46.883Z,1004.34
2018-07-06T05:26:28.035Z,1004.34
2018-07-06T05:27:08.566Z,1004.33
2018-07-06T05:27:49.111Z,1004.34
2018-07-06T05:28:29.619Z,1004.33
2018-07-06T05:29:10.117Z,1004.37
2018-07-06T05:29:51.050Z,1004.35
2018-07-06T05:30:31.414Z,1004.33
2018-07-06T05:31:11.850Z,1004.36
2018-07-06T05:31:52.565Z,1004.37
2018-07-06T05:32:33.110Z,1004.39
2018-07-06T05:33:13.642Z,1004.4
2018-07-06T05:33:54.103Z,1004.42
2018-07-06T05:34:34.618Z,1004.37
2018-07-06T05:35:15.122Z,1004.37
2018-07-06T05:35:55.732Z,1004.37
2018-07-06T05:36:36.277Z,1004.38
2018-07-06T05:37:17.663Z,1004.33
2018-07-06T05:37:58.854Z,1004.39
2018-07-06T05:38:40.379Z,1004.4
2018-07-06T05:39:21.828Z,1004.4
2018-07-06T05:40:02.355Z,1004.38
2018-07-06T05:40:42.888Z,1004.39
2018-07-06T05:41:23.542Z,1004.4
2018-07-06T05:42:04.061Z,1004.38
2018-07-06T05:42:44.538Z,1004.38
2018-07-06T05:43:25.473Z,1004.42
2018-07-06T05:44:05.959Z,1004.4
2018-07-06T05:44:46.501Z,1004.4
2018-07-06T05:45:27.013Z,1004.42
2018-07-06T05:46:07.547Z,1004.44
2018-07-06T05:46:48.370Z,1004.44
2018-07-06T05:47:29.430Z,1004.39
2018-07-06T05:48:09.985Z,1004.48
2018-07-06T05:48:51.298Z,1004.47
2018-07-06T05:49:31.779Z,1004.44
2018-07-06T05:50:12.910Z,1004.49
2018-07-06T05:50:53.511Z,1004.45
2018-07-06T05:51:34.031Z,1004.48
2018-07-06T05:52:14.655Z,1004.49
2018-07-06T05:52:55.222Z,1004.49
2018-07-06T05:53:35.728Z,1004.47
2018-07-06T05:54:16.200Z,1004.5
2018-07-06T05:54:56.717Z,1004.46
2018-07-06T05:55:37.300Z,1004.5
2018-07-06T05:56:17.712Z,1004.49
2018-07-06T05:56:58.276Z,1004.49
2018-07-06T05:57:38.758Z,1004.53
2018-07-06T05:58:19.233Z,1004.5
2018-07-06T05:58:59.714Z,1004.53
2018-07-06T05:59:40.417Z,1004.56
2018-07-06T06:00:20.904Z,1004.58
2018-07-06T06:01:01.424Z,1004.58
2018-07-06T06:01:41.902Z,1004.55
2018-07-06T06:02:22.421Z,1004.57
2018-07-06T06:03:03.122Z,1004.55
2018-07-06T06:03:43.758Z,1004.57
2018-07-06T06:04:24.413Z,1004.59
2018-07-06T06:05:04.812Z,1004.6
2018-07-06T06:05:45.662Z,1004.64
2018-07-06T06:06:26.116Z,1004.61
2018-07-06T06:07:06.690Z,1004.63
2018-07-06T06:07:47.172Z,1004.62
2018-07-06T06:08:27.739Z,1004.57
2018-07-06T06:09:09.245Z,1004.63
2018-07-06T06:09:49.692Z,1004.61
2018-07-06T06:10:30.208Z,1004.61
2018-07-06T06:11:10.716Z,1004.65
2018-07-06T06:11:51.592Z,1004.61
2018-07-06T06:12:32.052Z,1004.63
2018-07-06T06:13:12.553Z,1004.61
2018-07-06T06:13:54.086Z,1004.6
2018-07-06T06:14:34.515Z,1004.65
2018-07-06T06:15:15.045Z,1004.66
2018-07-06T06:15:55.593Z,1004.66
2018-07-06T06:16:36.097Z,1004.65
2018-07-06T06:17:16.674Z,1004.67
2018-07-06T06:17:58.826Z,1004.66
2018-07-06T06:18:40.116Z,1004.69
2018-07-06T06:19:20.441Z,1004.71
2018-07-06T06:20:00.986Z,1004.67
2018-07-06T06:20:41.473Z,1004.68
2018-07-06T06:21:22.041Z,1004.71
2018-07-06T06:22:02.602Z,1004.72
2018-07-06T06:22:43.548Z,1004.73
2018-07-06T06:23:24.049Z,1004.69
2018-07-06T06:24:04.564Z,1004.73
2018-07-06T06:24:45.123Z,1004.74
2018-07-06T06:25:25.616Z,1004.77
2018-07-06T06:26:06.188Z,1004.76
2018-07-06T06:26:47.502Z,1004.78
2018-07-06T06:27:28.029Z,1004.78
2018-07-06T06:28:08.576Z,1004.79
2018-07-06T06:28:49.959Z,1004.76
2018-07-06T06:29:31.294Z,1004.8
2018-07-06T06:30:13.070Z,1004.77
2018-07-06T06:30:53.657Z,1004.78
2018-07-06T06:31:34.116Z,1004.78
2018-07-06T06:32:14.645Z,1004.83
2018-07-06T06:32:55.204Z,1004.79
2018-07-06T06:33:35.727Z,1004.85
2018-07-06T06:34:16.160Z,1004.84
2018-07-06T06:34:56.683Z,1004.82
2018-07-06T06:35:37.125Z,1004.88
2018-07-06T06:36:17.651Z,1004.9
2018-07-06T06:36:58.148Z,1004.88
2018-07-06T06:37:38.667Z,1004.89
2018-07-06T06:38:19.195Z,1004.88
2018-07-06T06:38:59.649Z,1004.93
2018-07-06T06:39:40.154Z,1004.9
2018-07-06T06:40:20.648Z,1004.94
2018-07-06T06:41:01.233Z,1004.92
2018-07-06T06:41:41.690Z,1004.92
2018-07-06T06:42:22.149Z,1004.96
2018-07-06T06:43:02.645Z,1004.92
2018-07-06T06:43:43.177Z,1004.93
2018-07-06T06:44:23.839Z,1004.93
2018-07-06T06:45:05.213Z,1004.94
2018-07-06T06:45:46.675Z,1004.9
2018-07-06T06:46:27.195Z,1004.95
2018-07-06T06:47:07.690Z,1004.96
2018-07-06T06:47:49.168Z,1004.88
2018-07-06T06:48:29.675Z,1004.88
2018-07-06T06:49:10.171Z,1004.95
2018-07-06T06:49:50.668Z,1004.87
2018-07-06T06:50:31.161Z,1004.94
2018-07-06T06:51:11.704Z,1004.93
2018-07-06T06:51:52.233Z,1004.94
2018-07-06T06:52:32.746Z,1004.95
2018-07-06T06:53:13.207Z,1004.94
2018-07-06T06:53:53.721Z,1004.92
2018-07-06T06:54:34.171Z,1004.93
2018-07-06T06:55:14.721Z,1004.92
2018-07-06T06:55:55.939Z,1004.94
2018-07-06T06:56:36.492Z,1004.97
2018-07-06T06:57:17.852Z,1004.95
2018-07-06T06:57:58.395Z,1005
2018-07-06T06:58:38.835Z,1004.95
2018-07-06T06:59:20.149Z,1004.98
2018-07-06T07:00:00.562Z,1004.96
2018-07-06T07:00:41.078Z,1004.99
2018-07-06T07:01:21.598Z,1004.98
2018-07-06T07:02:02.905Z,1004.99
2018-07-06T07:02:43.381Z,1005.01
2018-07-06T07:03:24.827Z,1004.99
2018-07-06T07:04:05.383Z,1005.02
2018-07-06T07:04:45.794Z,1005.03
2018-07-06T07:05:26.296Z,1005.08
2018-07-06T07:06:06.787Z,1005.05
2018-07-06T07:06:47.301Z,1004.98
2018-07-06T07:07:27.888Z,1005.03
2018-07-06T07:08:08.357Z,1005
2018-07-06T07:08:48.789Z,1005.07
2018-07-06T07:09:29.356Z,1005.01
2018-07-06T07:10:09.804Z,1005.03
2018-07-06T07:10:50.345Z,1005.03
2018-07-06T07:11:31.654Z,1005.03
2018-07-06T07:12:12.085Z,1005.03
2018-07-06T07:12:52.578Z,1005.06
2018-07-06T07:13:33.104Z,1005.05
2018-07-06T07:14:13.741Z,1005.05
2018-07-06T07:14:54.208Z,1005.02
2018-07-06T07:15:34.699Z,1005.02
2018-07-06T07:16:15.228Z,1005.02
2018-07-06T07:16:56.464Z,1005.04
2018-07-06T07:17:37.033Z,1005.06
2018-07-06T07:18:17.481Z,1005.07
2018-07-06T07:18:57.968Z,1005.05
2018-07-06T07:19:38.892Z,1005.08
2018-07-06T07:20:19.018Z,1005.08
2018-07-06T07:20:59.521Z,1005.12
2018-07-06T07:21:40.094Z,1005.09
2018-07-06T07:22:21.202Z,1005.11
2018-07-06T07:23:01.722Z,1005.05
2018-07-06T07:23:45.987Z,1005.1
2018-07-06T07:24:26.380Z,1005.1
2018-07-06T07:25:06.888Z,1005.08
2018-07-06T07:25:47.330Z,1005.08
2018-07-06T07:26:27.847Z,1005.11
2018-07-06T07:29:01.763Z,1005.1
2018-07-06T07:29:42.300Z,1005.11
2018-07-06T07:30:22.814Z,1005.14
2018-07-06T07:31:03.295Z,1005.15
2018-07-06T07:31:43.833Z,1005.17
2018-07-06T07:32:24.311Z,1005.18
2018-07-06T07:33:04.818Z,1005.16
2018-07-06T07:33:46.079Z,1005.17
2018-07-06T07:34:27.205Z,1005.17
2018-07-06T07:35:07.796Z,1005.18
2018-07-06T07:35:48.262Z,1005.21
2018-07-06T07:36:28.781Z,1005.14
2018-07-06T07:37:09.318Z,1005.17
2018-07-06T07:37:49.786Z,1005.16
2018-07-06T07:38:30.381Z,1005.18
2018-07-06T07:39:10.833Z,1005.15
2018-07-06T07:39:51.315Z,1005.17
2018-07-06T07:40:31.838Z,1005.14
2018-07-06T07:41:12.315Z,1005.17
2018-07-06T07:41:52.827Z,1005.2
2018-07-06T07:42:33.323Z,1005.15
2018-07-06T07:43:13.848Z,1005.19
2018-07-06T07:43:54.380Z,1005.2
2018-07-06T07:44:34.856Z,1005.18
2018-07-06T07:45:15.421Z,1005.15
2018-07-06T07:45:55.868Z,1005.21
2018-07-06T07:46:36.486Z,1005.21
2018-07-06T07:47:16.954Z,1005.19
2018-07-06T07:47:57.420Z,1005.2
2018-07-06T07:48:38.611Z,1005.21
2018-07-06T07:49:19.133Z,1005.17
2018-07-06T07:49:59.638Z,1005.21
2018-07-06T07:50:40.142Z,1005.17
2018-07-06T07:51:21.724Z,1005.21
2018-07-06T07:52:02.216Z,1005.23
2018-07-06T07:52:42.702Z,1005.19
2018-07-06T07:53:23.209Z,1005.23
2018-07-06T07:54:03.794Z,1005.22
2018-07-06T07:54:44.335Z,1005.2
2018-07-06T07:55:24.797Z,1005.21
2018-07-06T07:56:05.412Z,1005.19
2018-07-06T07:56:45.937Z,1005.16
2018-07-06T07:57:26.465Z,1005.2
2018-07-06T07:58:07.116Z,1005.21
2018-07-06T07:58:47.625Z,1005.22
2018-07-06T07:59:28.196Z,1005.19
2018-07-06T08:00:08.653Z,1005.19
2018-07-06T08:00:49.307Z,1005.21
2018-07-06T08:01:29.754Z,1005.23
2018-07-06T08:02:10.211Z,1005.26
2018-07-06T08:02:50.766Z,1005.25
2018-07-06T08:03:31.262Z,1005.2
2018-07-06T08:04:13.718Z,1005.27
2018-07-06T08:04:54.271Z,1005.21
2018-07-06T08:05:34.773Z,1005.23
2018-07-06T08:06:15.234Z,1005.25
2018-07-06T08:06:55.787Z,1005.28
2018-07-06T08:07:36.260Z,1005.28
2018-07-06T08:08:16.750Z,1005.28
2018-07-06T08:08:57.265Z,1005.29
2018-07-06T08:09:37.817Z,1005.3
2018-07-06T08:10:18.343Z,1005.32
2018-07-06T08:10:58.795Z,1005.3
2018-07-06T08:11:39.306Z,1005.3
2018-07-06T08:12:20.007Z,1005.33
2018-07-06T08:13:00.534Z,1005.35
2018-07-06T08:13:41.016Z,1005.35
2018-07-06T08:14:21.540Z,1005.33
2018-07-06T08:15:02.012Z,1005.38
2018-07-06T08:15:43.331Z,1005.4